sensor_id;sensor_type;location;lat;lon;timestamp;P1;durP1;ratioP1;P2;durP2;ratioP2
26838;SDS011;40088;51.214;6.786;2022-11-11T00:04:07;4.25;;;3.53;;
26838;SDS011;40088;51.214;6.786;2022-11-11T00:14:07;5.55;;;3.20;;
26838;SDS011;40088;51.214;6.786;2022-11-11T00:24:16;5.00;;;3.13;;
26838;SDS011;40088;51.214;6.786;2022-11-11T00:34:38;6.72;;;3.47;;
26838;SDS011;40088;51.214;6.786;2022-11-11T00:44:38;4.85;;;3.33;;
26838;SDS011;40088;51.214;6.786;2022-11-11T00:54:38;4.03;;;3.20;;
26838;SDS011;40088;51.214;6.786;2022-11-11T01:04:39;4.72;;;3.10;;
26838;SDS011;40088;51.214;6.786;2022-11-11T01:14:39;4.68;;;3.20;;
26838;SDS011;40088;51.214;6.786;2022-11-11T01:24:39;7.78;;;3.97;;
26838;SDS011;40088;51.214;6.786;2022-11-11T01:34:40;5.68;;;3.15;;
26838;SDS011;40088;51.214;6.786;2022-11-11T01:44:44;5.70;;;3.33;;
26838;SDS011;40088;51.214;6.786;2022-11-11T01:54:50;5.00;;;3.17;;
26838;SDS011;40088;51.214;6.786;2022-11-11T02:04:52;4.95;;;3.53;;
26838;SDS011;40088;51.214;6.786;2022-11-11T02:15:11;4.25;;;3.08;;
26838;SDS011;40088;51.214;6.786;2022-11-11T02:25:12;5.40;;;3.30;;
26838;SDS011;40088;51.214;6.786;2022-11-11T02:35:32;4.72;;;3.28;;
26838;SDS011;40088;51.214;6.786;2022-11-11T02:45:35;4.82;;;3.35;;
26838;SDS011;40088;51.214;6.786;2022-11-11T02:55:35;6.32;;;3.50;;
26838;SDS011;40088;51.214;6.786;2022-11-11T03:05:35;4.68;;;2.95;;
26838;SDS011;40088;51.214;6.786;2022-11-11T03:15:36;5.00;;;2.97;;
26838;SDS011;40088;51.214;6.786;2022-11-11T03:25:37;4.78;;;3.33;;
26838;SDS011;40088;51.214;6.786;2022-11-11T03:35:45;6.25;;;3.33;;
26838;SDS011;40088;51.214;6.786;2022-11-11T03:45:46;4.00;;;2.80;;
26838;SDS011;40088;51.214;6.786;2022-11-11T03:55:47;5.97;;;3.20;;
26838;SDS011;40088;51.214;6.786;2022-11-11T04:05:48;4.13;;;2.78;;
26838;SDS011;40088;51.214;6.786;2022-11-11T04:16:20;4.43;;;3.05;;
26838;SDS011;40088;51.214;6.786;2022-11-11T04:26:21;5.28;;;3.10;;
26838;SDS011;40088;51.214;6.786;2022-11-11T04:36:21;5.50;;;3.15;;
26838;SDS011;40088;51.214;6.786;2022-11-11T04:46:21;5.57;;;3.08;;
26838;SDS011;40088;51.214;6.786;2022-11-11T04:56:21;5.22;;;3.00;;
26838;SDS011;40088;51.214;6.786;2022-11-11T05:06:40;3.72;;;2.67;;
26838;SDS011;40088;51.214;6.786;2022-11-11T05:16:59;4.13;;;2.70;;
26838;SDS011;40088;51.214;6.786;2022-11-11T05:27:18;5.78;;;2.78;;
26838;SDS011;40088;51.214;6.786;2022-11-11T05:37:20;3.65;;;2.53;;
26838;SDS011;40088;51.214;6.786;2022-11-11T05:47:21;3.75;;;2.50;;
26838;SDS011;40088;51.214;6.786;2022-11-11T05:57:21;4.47;;;2.80;;
26838;SDS011;40088;51.214;6.786;2022-11-11T06:07:21;6.10;;;2.80;;
26838;SDS011;40088;51.214;6.786;2022-11-11T06:17:22;3.92;;;2.33;;
26838;SDS011;40088;51.214;6.786;2022-11-11T06:27:22;4.60;;;2.38;;
26838;SDS011;40088;51.214;6.786;2022-11-11T06:37:22;4.35;;;2.80;;
26838;SDS011;40088;51.214;6.786;2022-11-11T06:47:22;3.40;;;2.70;;
26838;SDS011;40088;51.214;6.786;2022-11-11T06:57:23;4.18;;;2.72;;
26838;SDS011;40088;51.214;6.786;2022-11-11T07:07:23;3.78;;;2.72;;
26838;SDS011;40088;51.214;6.786;2022-11-11T07:17:23;3.65;;;2.40;;
26838;SDS011;40088;51.214;6.786;2022-11-11T07:27:24;3.72;;;2.55;;
26838;SDS011;40088;51.214;6.786;2022-11-11T07:37:24;3.90;;;2.65;;
26838;SDS011;40088;51.214;6.786;2022-11-11T07:47:24;4.90;;;2.65;;
26838;SDS011;40088;51.214;6.786;2022-11-11T07:57:24;5.10;;;2.65;;
26838;SDS011;40088;51.214;6.786;2022-11-11T08:07:25;4.60;;;2.63;;
26838;SDS011;40088;51.214;6.786;2022-11-11T08:17:25;4.47;;;2.50;;
26838;SDS011;40088;51.214;6.786;2022-11-11T08:27:26;4.23;;;2.83;;
26838;SDS011;40088;51.214;6.786;2022-11-11T08:37:26;3.67;;;2.50;;
26838;SDS011;40088;51.214;6.786;2022-11-11T08:47:27;3.97;;;2.90;;
26838;SDS011;40088;51.214;6.786;2022-11-11T08:57:27;3.17;;;2.65;;
26838;SDS011;40088;51.214;6.786;2022-11-11T09:07:27;3.60;;;2.72;;
26838;SDS011;40088;51.214;6.786;2022-11-11T09:17:28;3.83;;;2.45;;
26838;SDS011;40088;51.214;6.786;2022-11-11T09:27:28;3.15;;;2.38;;
26838;SDS011;40088;51.214;6.786;2022-11-11T09:37:28;3.35;;;2.67;;
26838;SDS011;40088;51.214;6.786;2022-11-11T09:47:35;3.65;;;2.53;;
26838;SDS011;40088;51.214;6.786;2022-11-11T09:57:47;5.38;;;2.83;;
26838;SDS011;40088;51.214;6.786;2022-11-11T10:18:32;6.28;;;2.80;;
26838;SDS011;40088;51.214;6.786;2022-11-11T10:28:43;5.28;;;2.72;;
26838;SDS011;40088;51.214;6.786;2022-11-11T10:38:57;4.47;;;3.00;;
26838;SDS011;40088;51.214;6.786;2022-11-11T10:59:46;4.28;;;2.72;;
26838;SDS011;40088;51.214;6.786;2022-11-11T11:20:05;5.00;;;2.70;;
26838;SDS011;40088;51.214;6.786;2022-11-11T11:30:13;3.58;;;2.17;;
26838;SDS011;40088;51.214;6.786;2022-11-11T11:40:16;4.40;;;2.22;;
26838;SDS011;40088;51.214;6.786;2022-11-11T12:00:37;3.78;;;2.30;;
26838;SDS011;40088;51.214;6.786;2022-11-11T12:10:58;4.85;;;2.40;;
26838;SDS011;40088;51.214;6.786;2022-11-11T12:21:16;4.30;;;2.42;;
26838;SDS011;40088;51.214;6.786;2022-11-11T12:41:31;4.30;;;2.10;;
26838;SDS011;40088;51.214;6.786;2022-11-11T13:02:15;3.65;;;2.28;;
26838;SDS011;40088;51.214;6.786;2022-11-11T13:12:34;2.20;;;1.90;;
26838;SDS011;40088;51.214;6.786;2022-11-11T13:22:42;3.40;;;2.30;;
26838;SDS011;40088;51.214;6.786;2022-11-11T13:32:44;2.58;;;2.10;;
26838;SDS011;40088;51.214;6.786;2022-11-11T13:42:49;4.13;;;1.90;;
26838;SDS011;40088;51.214;6.786;2022-11-11T13:53:04;3.37;;;2.10;;
26838;SDS011;40088;51.214;6.786;2022-11-11T14:23:41;5.07;;;2.00;;
26838;SDS011;40088;51.214;6.786;2022-11-11T14:33:50;2.67;;;1.80;;
26838;SDS011;40088;51.214;6.786;2022-11-11T14:43:55;3.23;;;1.70;;
26838;SDS011;40088;51.214;6.786;2022-11-11T14:54:33;2.70;;;1.90;;
26838;SDS011;40088;51.214;6.786;2022-11-11T15:04:55;2.30;;;1.77;;
26838;SDS011;40088;51.214;6.786;2022-11-11T15:15:00;6.35;;;2.25;;
26838;SDS011;40088;51.214;6.786;2022-11-11T15:45:42;6.32;;;2.00;;
26838;SDS011;40088;51.214;6.786;2022-11-11T15:55:43;8.13;;;2.23;;
26838;SDS011;40088;51.214;6.786;2022-11-11T16:05:51;6.15;;;2.03;;
26838;SDS011;40088;51.214;6.786;2022-11-11T16:15:57;4.68;;;2.33;;
26838;SDS011;40088;51.214;6.786;2022-11-11T16:25:59;4.38;;;2.83;;
26838;SDS011;40088;51.214;6.786;2022-11-11T16:36:06;4.50;;;3.23;;
26838;SDS011;40088;51.214;6.786;2022-11-11T16:46:08;3.97;;;3.00;;
26838;SDS011;40088;51.214;6.786;2022-11-11T16:56:15;5.82;;;3.50;;
26838;SDS011;40088;51.214;6.786;2022-11-11T17:06:44;5.60;;;3.22;;
26838;SDS011;40088;51.214;6.786;2022-11-11T17:16:50;4.18;;;2.78;;
26838;SDS011;40088;51.214;6.786;2022-11-11T17:26:53;5.45;;;3.17;;
26838;SDS011;40088;51.214;6.786;2022-11-11T17:36:54;21.47;;;4.60;;
26838;SDS011;40088;51.214;6.786;2022-11-11T17:46:54;10.10;;;5.90;;
26838;SDS011;40088;51.214;6.786;2022-11-11T17:56:55;16.70;;;6.05;;
26838;SDS011;40088;51.214;6.786;2022-11-11T18:06:55;15.30;;;5.45;;
26838;SDS011;40088;51.214;6.786;2022-11-11T18:16:55;17.45;;;5.00;;
26838;SDS011;40088;51.214;6.786;2022-11-11T18:26:55;11.93;;;4.50;;
26838;SDS011;40088;51.214;6.786;2022-11-11T18:36:56;11.00;;;4.45;;
26838;SDS011;40088;51.214;6.786;2022-11-11T18:46:56;8.35;;;4.15;;
26838;SDS011;40088;51.214;6.786;2022-11-11T18:56:56;11.63;;;4.43;;
26838;SDS011;40088;51.214;6.786;2022-11-11T19:06:56;7.22;;;4.15;;
26838;SDS011;40088;51.214;6.786;2022-11-11T19:16:58;9.93;;;4.65;;
26838;SDS011;40088;51.214;6.786;2022-11-11T19:26:59;9.38;;;4.75;;
26838;SDS011;40088;51.214;6.786;2022-11-11T19:36:59;7.03;;;4.20;;
26838;SDS011;40088;51.214;6.786;2022-11-11T19:46:59;8.07;;;4.15;;
26838;SDS011;40088;51.214;6.786;2022-11-11T19:57:00;5.50;;;4.13;;
26838;SDS011;40088;51.214;6.786;2022-11-11T20:07:00;6.07;;;4.03;;
26838;SDS011;40088;51.214;6.786;2022-11-11T20:17:00;6.55;;;3.92;;
26838;SDS011;40088;51.214;6.786;2022-11-11T20:27:01;5.88;;;4.22;;
26838;SDS011;40088;51.214;6.786;2022-11-11T20:37:01;6.72;;;4.18;;
26838;SDS011;40088;51.214;6.786;2022-11-11T20:47:01;5.50;;;3.85;;
26838;SDS011;40088;51.214;6.786;2022-11-11T20:57:02;5.55;;;4.13;;
26838;SDS011;40088;51.214;6.786;2022-11-11T21:07:02;6.78;;;3.80;;
26838;SDS011;40088;51.214;6.786;2022-11-11T21:17:02;4.75;;;3.85;;
26838;SDS011;40088;51.214;6.786;2022-11-11T21:27:03;5.07;;;3.80;;
26838;SDS011;40088;51.214;6.786;2022-11-11T21:37:03;4.70;;;3.55;;
26838;SDS011;40088;51.214;6.786;2022-11-11T21:47:03;6.32;;;4.75;;
26838;SDS011;40088;51.214;6.786;2022-11-11T21:57:03;6.38;;;4.45;;
26838;SDS011;40088;51.214;6.786;2022-11-11T22:07:04;6.30;;;4.15;;
26838;SDS011;40088;51.214;6.786;2022-11-11T22:17:04;5.63;;;4.10;;
26838;SDS011;40088;51.214;6.786;2022-11-11T22:27:04;5.85;;;4.10;;
26838;SDS011;40088;51.214;6.786;2022-11-11T22:37:04;5.97;;;3.88;;
26838;SDS011;40088;51.214;6.786;2022-11-11T22:47:05;5.35;;;3.70;;
26838;SDS011;40088;51.214;6.786;2022-11-11T22:57:07;6.85;;;4.03;;
26838;SDS011;40088;51.214;6.786;2022-11-11T23:07:07;7.93;;;3.93;;
26838;SDS011;40088;51.214;6.786;2022-11-11T23:17:08;5.03;;;3.70;;
26838;SDS011;40088;51.214;6.786;2022-11-11T23:27:08;5.88;;;4.03;;
26838;SDS011;40088;51.214;6.786;2022-11-11T23:37:08;4.55;;;3.92;;
26838;SDS011;40088;51.214;6.786;2022-11-11T23:47:08;5.93;;;4.35;;
26838;SDS011;40088;51.214;6.786;2022-11-11T23:57:09;4.22;;;3.28;;
